sensor_id;sensor_type;location;lat;lon;timestamp;pressure;altitude;pressure_sealevel;temperature;humidity
84797;BME280;75028;51.374;21.078;2024-02-21T00:00:03;99914.19;;;5.00;99.42
84797;BME280;75028;51.374;21.078;2024-02-21T00:02:31;99910.34;;;5.05;99.27
84797;BME280;75028;51.374;21.078;2024-02-21T00:04:57;99911.47;;;5.01;99.16
84797;BME280;75028;51.374;21.078;2024-02-21T00:07:23;99903.53;;;5.03;99.15
84797;BME280;75028;51.374;21.078;2024-02-21T00:09:49;99909.50;;;5.05;99.17
84797;BME280;75028;51.374;21.078;2024-02-21T00:12:15;99904.25;;;5.05;99.86
84797;BME280;75028;51.374;21.078;2024-02-21T00:14:41;99896.03;;;4.97;99.88
84797;BME280;75028;51.374;21.078;2024-02-21T00:17:08;99900.34;;;4.98;99.35
84797;BME280;75028;51.374;21.078;2024-02-21T00:19:34;99904.63;;;4.99;98.79
84797;BME280;75028;51.374;21.078;2024-02-21T00:22:00;99909.59;;;5.03;99.23
84797;BME280;75028;51.374;21.078;2024-02-21T00:24:26;99903.81;;;4.98;99.63
84797;BME280;75028;51.374;21.078;2024-02-21T00:26:53;99909.59;;;4.89;98.76
84797;BME280;75028;51.374;21.078;2024-02-21T00:29:20;99896.50;;;4.75;99.68
84797;BME280;75028;51.374;21.078;2024-02-21T00:31:47;99903.06;;;4.68;99.96
84797;BME280;75028;51.374;21.078;2024-02-21T00:34:13;99908.84;;;4.59;100.00
84797;BME280;75028;51.374;21.078;2024-02-21T00:36:40;99906.31;;;4.58;100.00
84797;BME280;75028;51.374;21.078;2024-02-21T00:39:06;99891.38;;;4.46;99.96
84797;BME280;75028;51.374;21.078;2024-02-21T00:41:32;99894.91;;;4.45;99.55
84797;BME280;75028;51.374;21.078;2024-02-21T00:43:58;99888.00;;;4.44;100.00
84797;BME280;75028;51.374;21.078;2024-02-21T00:46:24;99901.84;;;4.46;100.00
84797;BME280;75028;51.374;21.078;2024-02-21T00:48:50;99895.06;;;4.42;100.00
84797;BME280;75028;51.374;21.078;2024-02-21T00:51:16;99896.47;;;4.33;99.98
84797;BME280;75028;51.374;21.078;2024-02-21T00:53:43;99900.13;;;4.31;100.00
84797;BME280;75028;51.374;21.078;2024-02-21T00:56:09;99902.91;;;4.28;100.00
84797;BME280;75028;51.374;21.078;2024-02-21T00:58:35;99899.38;;;4.29;100.00
84797;BME280;75028;51.374;21.078;2024-02-21T01:01:01;99894.69;;;4.34;100.00
84797;BME280;75028;51.374;21.078;2024-02-21T01:03:28;99885.91;;;4.35;100.00
84797;BME280;75028;51.374;21.078;2024-02-21T01:05:55;99882.19;;;4.39;100.00
84797;BME280;75028;51.374;21.078;2024-02-21T01:08:20;99877.88;;;4.38;99.86
84797;BME280;75028;51.374;21.078;2024-02-21T01:10:47;99880.66;;;4.35;100.00
84797;BME280;75028;51.374;21.078;2024-02-21T01:13:13;99882.94;;;4.41;100.00
84797;BME280;75028;51.374;21.078;2024-02-21T01:15:39;99880.97;;;4.44;100.00
84797;BME280;75028;51.374;21.078;2024-02-21T01:18:04;99875.56;;;4.47;99.74
84797;BME280;75028;51.374;21.078;2024-02-21T01:20:31;99867.81;;;4.60;100.00
84797;BME280;75028;51.374;21.078;2024-02-21T01:22:57;99875.56;;;4.61;99.61
84797;BME280;75028;51.374;21.078;2024-02-21T01:25:23;99878.91;;;4.63;99.55
84797;BME280;75028;51.374;21.078;2024-02-21T01:27:49;99873.84;;;4.60;98.62
84797;BME280;75028;51.374;21.078;2024-02-21T01:30:15;99864.78;;;4.52;99.00
84797;BME280;75028;51.374;21.078;2024-02-21T01:32:41;99859.38;;;4.41;99.06
84797;BME280;75028;51.374;21.078;2024-02-21T01:35:08;99866.00;;;4.32;99.86
84797;BME280;75028;51.374;21.078;2024-02-21T01:37:33;99854.31;;;4.24;100.00
84797;BME280;75028;51.374;21.078;2024-02-21T01:40:00;99863.81;;;4.25;100.00
84797;BME280;75028;51.374;21.078;2024-02-21T01:42:26;99861.97;;;4.27;100.00
84797;BME280;75028;51.374;21.078;2024-02-21T01:44:52;99852.25;;;4.29;100.00
84797;BME280;75028;51.374;21.078;2024-02-21T01:47:18;99843.84;;;4.24;100.00
84797;BME280;75028;51.374;21.078;2024-02-21T01:49:44;99855.34;;;4.35;100.00
84797;BME280;75028;51.374;21.078;2024-02-21T01:52:11;99836.47;;;4.30;100.00
84797;BME280;75028;51.374;21.078;2024-02-21T01:54:40;99851.59;;;4.39;100.00
84797;BME280;75028;51.374;21.078;2024-02-21T01:57:06;99857.41;;;4.44;100.00
84797;BME280;75028;51.374;21.078;2024-02-21T01:59:33;99860.03;;;4.44;99.88
84797;BME280;75028;51.374;21.078;2024-02-21T02:01:59;99858.72;;;4.51;99.97
84797;BME280;75028;51.374;21.078;2024-02-21T02:04:26;99860.22;;;4.55;99.97
84797;BME280;75028;51.374;21.078;2024-02-21T02:06:54;99849.84;;;4.54;100.00
84797;BME280;75028;51.374;21.078;2024-02-21T02:09:20;99853.84;;;4.59;99.56
84797;BME280;75028;51.374;21.078;2024-02-21T02:11:46;99859.38;;;4.55;99.49
84797;BME280;75028;51.374;21.078;2024-02-21T02:14:13;99839.44;;;4.52;99.97
84797;BME280;75028;51.374;21.078;2024-02-21T02:16:38;99853.22;;;4.56;99.62
84797;BME280;75028;51.374;21.078;2024-02-21T02:19:05;99851.59;;;4.53;99.55
84797;BME280;75028;51.374;21.078;2024-02-21T02:21:34;99846.28;;;4.55;99.63
84797;BME280;75028;51.374;21.078;2024-02-21T02:24:01;99845.34;;;4.56;99.69
84797;BME280;75028;51.374;21.078;2024-02-21T02:26:27;99844.41;;;4.57;100.00
84797;BME280;75028;51.374;21.078;2024-02-21T02:28:53;99846.19;;;4.56;99.81
84797;BME280;75028;51.374;21.078;2024-02-21T02:31:19;99841.88;;;4.55;100.00
84797;BME280;75028;51.374;21.078;2024-02-21T02:33:45;99842.53;;;4.59;100.00
84797;BME280;75028;51.374;21.078;2024-02-21T02:36:11;99836.56;;;4.57;100.00
84797;BME280;75028;51.374;21.078;2024-02-21T02:38:37;99844.13;;;4.61;100.00
84797;BME280;75028;51.374;21.078;2024-02-21T02:41:03;99835.44;;;4.61;100.00
84797;BME280;75028;51.374;21.078;2024-02-21T02:43:29;99837.09;;;4.62;100.00
84797;BME280;75028;51.374;21.078;2024-02-21T02:45:55;99841.88;;;4.69;100.00
84797;BME280;75028;51.374;21.078;2024-02-21T02:48:21;99832.25;;;4.70;100.00
84797;BME280;75028;51.374;21.078;2024-02-21T02:50:47;99832.88;;;4.73;100.00
84797;BME280;75028;51.374;21.078;2024-02-21T02:53:15;99832.88;;;4.73;100.00
84797;BME280;75028;51.374;21.078;2024-02-21T02:55:41;99833.63;;;4.75;100.00
84797;BME280;75028;51.374;21.078;2024-02-21T02:58:07;99827.56;;;4.75;100.00
84797;BME280;75028;51.374;21.078;2024-02-21T03:00:34;99833.84;;;4.72;100.00
84797;BME280;75028;51.374;21.078;2024-02-21T03:03:02;99835.59;;;4.72;100.00
84797;BME280;75028;51.374;21.078;2024-02-21T03:05:31;99834.50;;;4.76;100.00
84797;BME280;75028;51.374;21.078;2024-02-21T03:07:57;99834.38;;;4.77;100.00
84797;BME280;75028;51.374;21.078;2024-02-21T03:10:24;99829.13;;;4.77;100.00
84797;BME280;75028;51.374;21.078;2024-02-21T03:12:50;99838.69;;;4.78;100.00
84797;BME280;75028;51.374;21.078;2024-02-21T03:15:18;99838.78;;;4.77;100.00
84797;BME280;75028;51.374;21.078;2024-02-21T03:17:44;99839.41;;;4.80;100.00
84797;BME280;75028;51.374;21.078;2024-02-21T03:20:11;99845.50;;;4.81;100.00
84797;BME280;75028;51.374;21.078;2024-02-21T03:22:37;99841.22;;;4.80;100.00
84797;BME280;75028;51.374;21.078;2024-02-21T03:25:04;99835.03;;;4.81;100.00
84797;BME280;75028;51.374;21.078;2024-02-21T03:27:30;99837.56;;;4.82;100.00
84797;BME280;75028;51.374;21.078;2024-02-21T03:29:56;99829.88;;;4.79;100.00
84797;BME280;75028;51.374;21.078;2024-02-21T03:32:22;99837.38;;;4.85;100.00
84797;BME280;75028;51.374;21.078;2024-02-21T03:34:48;99843.56;;;4.84;100.00
84797;BME280;75028;51.374;21.078;2024-02-21T03:37:14;99834.75;;;4.85;100.00
84797;BME280;75028;51.374;21.078;2024-02-21T03:39:41;99833.81;;;4.86;100.00
84797;BME280;75028;51.374;21.078;2024-02-21T03:42:07;99833.09;;;4.84;100.00
84797;BME280;75028;51.374;21.078;2024-02-21T03:44:33;99834.56;;;4.88;100.00
84797;BME280;75028;51.374;21.078;2024-02-21T03:47:00;99827.72;;;4.86;100.00
84797;BME280;75028;51.374;21.078;2024-02-21T03:49:26;99830.25;;;4.87;100.00
84797;BME280;75028;51.374;21.078;2024-02-21T03:51:53;99831.09;;;4.88;100.00
84797;BME280;75028;51.374;21.078;2024-02-21T03:54:19;99830.91;;;4.91;100.00
84797;BME280;75028;51.374;21.078;2024-02-21T03:56:45;99828.47;;;4.88;100.00
84797;BME280;75028;51.374;21.078;2024-02-21T03:59:13;99831.09;;;4.88;100.00
84797;BME280;75028;51.374;21.078;2024-02-21T04:01:39;99828.47;;;4.88;100.00
84797;BME280;75028;51.374;21.078;2024-02-21T04:04:05;99823.41;;;4.85;100.00
84797;BME280;75028;51.374;21.078;2024-02-21T04:06:31;99821.56;;;4.87;100.00
84797;BME280;75028;51.374;21.078;2024-02-21T04:08:57;99824.19;;;4.87;100.00
84797;BME280;75028;51.374;21.078;2024-02-21T04:11:23;99825.09;;;4.86;100.00
84797;BME280;75028;51.374;21.078;2024-02-21T04:13:50;99823.22;;;4.88;100.00
84797;BME280;75028;51.374;21.078;2024-02-21T04:16:17;99825.00;;;4.87;100.00
84797;BME280;75028;51.374;21.078;2024-02-21T04:18:43;99821.75;;;4.84;100.00
84797;BME280;75028;51.374;21.078;2024-02-21T04:21:14;99816.22;;;4.88;100.00
84797;BME280;75028;51.374;21.078;2024-02-21T04:23:41;99827.72;;;4.86;100.00
84797;BME280;75028;51.374;21.078;2024-02-21T04:26:07;99830.34;;;4.86;100.00
84797;BME280;75028;51.374;21.078;2024-02-21T04:28:33;99822.47;;;4.86;100.00
84797;BME280;75028;51.374;21.078;2024-02-21T04:30:59;99812.13;;;4.84;100.00
84797;BME280;75028;51.374;21.078;2024-02-21T04:33:25;99815.19;;;4.91;100.00
84797;BME280;75028;51.374;21.078;2024-02-21T04:35:52;99814.31;;;4.90;100.00
84797;BME280;75028;51.374;21.078;2024-02-21T04:38:20;99807.16;;;4.80;100.00
84797;BME280;75028;51.374;21.078;2024-02-21T04:40:47;99810.88;;;4.90;100.00
84797;BME280;75028;51.374;21.078;2024-02-21T04:43:13;99820.41;;;4.91;100.00
84797;BME280;75028;51.374;21.078;2024-02-21T04:45:39;99813.50;;;4.90;100.00
84797;BME280;75028;51.374;21.078;2024-02-21T04:48:05;99807.59;;;4.86;100.00
84797;BME280;75028;51.374;21.078;2024-02-21T04:50:31;99822.28;;;4.89;100.00
84797;BME280;75028;51.374;21.078;2024-02-21T04:52:57;99811.81;;;4.89;100.00
84797;BME280;75028;51.374;21.078;2024-02-21T04:55:23;99815.19;;;4.91;100.00
84797;BME280;75028;51.374;21.078;2024-02-21T04:57:49;99820.50;;;4.89;100.00
84797;BME280;75028;51.374;21.078;2024-02-21T05:00:16;99808.66;;;4.84;100.00
84797;BME280;75028;51.374;21.078;2024-02-21T05:02:42;99808.75;;;4.82;100.00
84797;BME280;75028;51.374;21.078;2024-02-21T05:05:08;99817.22;;;4.86;100.00
84797;BME280;75028;51.374;21.078;2024-02-21T05:07:34;99805.94;;;4.85;100.00
84797;BME280;75028;51.374;21.078;2024-02-21T05:10:01;99807.78;;;4.83;100.00
84797;BME280;75028;51.374;21.078;2024-02-21T05:12:27;99806.88;;;4.84;100.00
84797;BME280;75028;51.374;21.078;2024-02-21T05:14:53;99788.06;;;4.78;100.00
84797;BME280;75028;51.374;21.078;2024-02-21T05:17:19;99798.16;;;4.84;100.00
84797;BME280;75028;51.374;21.078;2024-02-21T05:19:45;99802.47;;;4.85;100.00
84797;BME280;75028;51.374;21.078;2024-02-21T05:22:11;99797.22;;;4.85;100.00
84797;BME280;75028;51.374;21.078;2024-02-21T05:24:39;99806.75;;;4.86;100.00
84797;BME280;75028;51.374;21.078;2024-02-21T05:27:05;99813.59;;;4.88;100.00
84797;BME280;75028;51.374;21.078;2024-02-21T05:29:32;99807.13;;;4.94;100.00
84797;BME280;75028;51.374;21.078;2024-02-21T05:31:58;99804.50;;;4.94;100.00
84797;BME280;75028;51.374;21.078;2024-02-21T05:34:25;99804.31;;;4.97;100.00
84797;BME280;75028;51.374;21.078;2024-02-21T05:36:51;99810.47;;;4.96;100.00
84797;BME280;75028;51.374;21.078;2024-02-21T05:39:18;99807.03;;;4.95;100.00
84797;BME280;75028;51.374;21.078;2024-02-21T05:41:44;99804.41;;;4.95;100.00
84797;BME280;75028;51.374;21.078;2024-02-21T05:44:11;99804.31;;;4.97;100.00
84797;BME280;75028;51.374;21.078;2024-02-21T05:46:36;99797.59;;;4.93;100.00
84797;BME280;75028;51.374;21.078;2024-02-21T05:49:03;99802.41;;;4.99;100.00
84797;BME280;75028;51.374;21.078;2024-02-21T05:51:32;99805.81;;;5.01;100.00
84797;BME280;75028;51.374;21.078;2024-02-21T05:53:59;99788.78;;;4.94;100.00
84797;BME280;75028;51.374;21.078;2024-02-21T05:56:25;99793.66;;;5.00;100.00
84797;BME280;75028;51.374;21.078;2024-02-21T05:58:51;99793.44;;;5.03;100.00
84797;BME280;75028;51.374;21.078;2024-02-21T06:01:17;99805.50;;;5.05;100.00
84797;BME280;75028;51.374;21.078;2024-02-21T06:03:44;99796.59;;;5.08;100.00
84797;BME280;75028;51.374;21.078;2024-02-21T06:06:10;99783.78;;;5.03;100.00
84797;BME280;75028;51.374;21.078;2024-02-21T06:08:36;99795.47;;;5.12;100.00
84797;BME280;75028;51.374;21.078;2024-02-21T06:11:02;99789.31;;;5.13;100.00
84797;BME280;75028;51.374;21.078;2024-02-21T06:13:28;99791.69;;;5.16;100.00
84797;BME280;75028;51.374;21.078;2024-02-21T06:15:54;99784.88;;;5.13;100.00
84797;BME280;75028;51.374;21.078;2024-02-21T06:18:20;99780.28;;;5.17;100.00
84797;BME280;75028;51.374;21.078;2024-02-21T06:20:47;99782.25;;;5.13;100.00
84797;BME280;75028;51.374;21.078;2024-02-21T06:23:15;99787.00;;;5.21;100.00
84797;BME280;75028;51.374;21.078;2024-02-21T06:25:42;99784.38;;;5.21;100.00
84797;BME280;75028;51.374;21.078;2024-02-21T06:28:08;99782.19;;;5.27;100.00
84797;BME280;75028;51.374;21.078;2024-02-21T06:30:34;99784.72;;;5.29;100.00
84797;BME280;75028;51.374;21.078;2024-02-21T06:33:00;99787.91;;;5.34;100.00
84797;BME280;75028;51.374;21.078;2024-02-21T06:35:28;99786.09;;;5.34;100.00
84797;BME280;75028;51.374;21.078;2024-02-21T06:37:55;99785.59;;;5.42;100.00
84797;BME280;75028;51.374;21.078;2024-02-21T06:40:22;99794.22;;;5.44;100.00
84797;BME280;75028;51.374;21.078;2024-02-21T06:42:49;99791.06;;;5.52;100.00
84797;BME280;75028;51.374;21.078;2024-02-21T06:45:16;99783.53;;;5.47;100.00
84797;BME280;75028;51.374;21.078;2024-02-21T06:47:42;99796.22;;;5.53;100.00
84797;BME280;75028;51.374;21.078;2024-02-21T06:50:09;99796.41;;;5.50;100.00
84797;BME280;75028;51.374;21.078;2024-02-21T06:52:36;99792.47;;;5.57;100.00
84797;BME280;75028;51.374;21.078;2024-02-21T06:55:02;99793.94;;;5.61;100.00
84797;BME280;75028;51.374;21.078;2024-02-21T06:57:29;99788.81;;;5.60;100.00
84797;BME280;75028;51.374;21.078;2024-02-21T06:59:55;99785.13;;;5.62;100.00
84797;BME280;75028;51.374;21.078;2024-02-21T07:02:22;99794.56;;;5.65;100.00
84797;BME280;75028;51.374;21.078;2024-02-21T07:04:48;99788.31;;;5.67;100.00
84797;BME280;75028;51.374;21.078;2024-02-21T07:07:14;99794.28;;;5.69;100.00
84797;BME280;75028;51.374;21.078;2024-02-21T07:09:40;99792.09;;;5.76;100.00
84797;BME280;75028;51.374;21.078;2024-02-21T07:12:06;99785.53;;;5.83;99.90
84797;BME280;75028;51.374;21.078;2024-02-21T07:14:33;99787.59;;;5.90;100.00
84797;BME280;75028;51.374;21.078;2024-02-21T07:16:59;99791.84;;;5.93;100.00
84797;BME280;75028;51.374;21.078;2024-02-21T07:19:25;99783.31;;;6.02;100.00
84797;BME280;75028;51.374;21.078;2024-02-21T07:21:51;99793.19;;;6.11;100.00
84797;BME280;75028;51.374;21.078;2024-02-21T07:24:17;99792.69;;;6.18;99.31
84797;BME280;75028;51.374;21.078;2024-02-21T07:26:44;99782.47;;;6.26;98.47
84797;BME280;75028;51.374;21.078;2024-02-21T07:29:10;99778.28;;;6.36;98.20
84797;BME280;75028;51.374;21.078;2024-02-21T07:31:43;99784.38;;;6.37;97.65
84797;BME280;75028;51.374;21.078;2024-02-21T07:34:09;99780.91;;;6.36;98.21
84797;BME280;75028;51.374;21.078;2024-02-21T07:36:36;99778.91;;;6.27;97.85
84797;BME280;75028;51.374;21.078;2024-02-21T07:39:05;99779.84;;;6.26;98.08
84797;BME280;75028;51.374;21.078;2024-02-21T07:41:32;99781.13;;;6.21;98.36
84797;BME280;75028;51.374;21.078;2024-02-21T07:43:59;99771.25;;;6.12;98.13
84797;BME280;75028;51.374;21.078;2024-02-21T07:46:25;99785.72;;;6.17;98.21
84797;BME280;75028;51.374;21.078;2024-02-21T07:48:51;99784.34;;;6.24;98.22
84797;BME280;75028;51.374;21.078;2024-02-21T07:51:18;99773.97;;;6.35;97.40
84797;BME280;75028;51.374;21.078;2024-02-21T07:53:45;99767.75;;;6.36;97.25
84797;BME280;75028;51.374;21.078;2024-02-21T07:56:12;99772.88;;;6.50;97.75
84797;BME280;75028;51.374;21.078;2024-02-21T07:58:38;99768.56;;;6.62;97.35
84797;BME280;75028;51.374;21.078;2024-02-21T08:01:04;99756.00;;;6.78;96.49
84797;BME280;75028;51.374;21.078;2024-02-21T08:03:30;99760.13;;;7.05;95.67
84797;BME280;75028;51.374;21.078;2024-02-21T08:05:56;99757.78;;;7.13;94.26
84797;BME280;75028;51.374;21.078;2024-02-21T08:08:22;99760.56;;;6.99;95.75
84797;BME280;75028;51.374;21.078;2024-02-21T08:10:49;99755.38;;;6.87;94.86
84797;BME280;75028;51.374;21.078;2024-02-21T08:13:14;99754.91;;;6.93;94.87
84797;BME280;75028;51.374;21.078;2024-02-21T08:15:41;99749.25;;;6.86;94.93
84797;BME280;75028;51.374;21.078;2024-02-21T08:18:07;99748.06;;;6.90;95.42
84797;BME280;75028;51.374;21.078;2024-02-21T08:20:33;99750.72;;;6.90;95.83
84797;BME280;75028;51.374;21.078;2024-02-21T08:23:00;99745.63;;;7.00;95.76
84797;BME280;75028;51.374;21.078;2024-02-21T08:25:26;99748.25;;;7.00;95.97
84797;BME280;75028;51.374;21.078;2024-02-21T08:27:57;99748.53;;;7.08;95.39
84797;BME280;75028;51.374;21.078;2024-02-21T08:30:23;99741.13;;;7.13;94.97
84797;BME280;75028;51.374;21.078;2024-02-21T08:32:49;99741.81;;;7.27;95.12
84797;BME280;75028;51.374;21.078;2024-02-21T08:35:15;99737.78;;;7.34;93.45
84797;BME280;75028;51.374;21.078;2024-02-21T08:37:44;99735.81;;;7.25;93.46
84797;BME280;75028;51.374;21.078;2024-02-21T08:40:13;99739.19;;;7.27;93.79
84797;BME280;75028;51.374;21.078;2024-02-21T08:42:43;99734.88;;;7.26;93.97
84797;BME280;75028;51.374;21.078;2024-02-21T08:45:10;99740.50;;;7.33;93.97
84797;BME280;75028;51.374;21.078;2024-02-21T08:47:36;99732.03;;;7.29;94.08
84797;BME280;75028;51.374;21.078;2024-02-21T08:50:05;99725.25;;;7.38;94.30
84797;BME280;75028;51.374;21.078;2024-02-21T08:52:32;99730.03;;;7.44;93.15
84797;BME280;75028;51.374;21.078;2024-02-21T08:54:58;99729.69;;;7.48;93.60
84797;BME280;75028;51.374;21.078;2024-02-21T08:57:24;99735.47;;;7.53;93.43
84797;BME280;75028;51.374;21.078;2024-02-21T08:59:50;99719.97;;;7.38;92.48
84797;BME280;75028;51.374;21.078;2024-02-21T09:02:16;99726.22;;;7.48;93.64
84797;BME280;75028;51.374;21.078;2024-02-21T09:04:43;99723.97;;;7.54;93.51
84797;BME280;75028;51.374;21.078;2024-02-21T09:07:11;99724.94;;;7.64;92.32
84797;BME280;75028;51.374;21.078;2024-02-21T09:09:37;99723.78;;;7.79;92.68
84797;BME280;75028;51.374;21.078;2024-02-21T09:12:07;99725.81;;;7.87;91.04
84797;BME280;75028;51.374;21.078;2024-02-21T09:14:33;99717.34;;;8.06;91.32
84797;BME280;75028;51.374;21.078;2024-02-21T09:17:00;99721.53;;;8.08;91.55
84797;BME280;75028;51.374;21.078;2024-02-21T09:19:26;99721.78;;;8.16;89.88
84797;BME280;75028;51.374;21.078;2024-02-21T09:21:52;99723.03;;;8.23;89.83
84797;BME280;75028;51.374;21.078;2024-02-21T09:24:18;99725.78;;;8.33;90.06
84797;BME280;75028;51.374;21.078;2024-02-21T09:26:44;99720.50;;;8.33;90.21
84797;BME280;75028;51.374;21.078;2024-02-21T09:29:10;99719.75;;;8.20;88.71
84797;BME280;75028;51.374;21.078;2024-02-21T09:31:36;99726.38;;;8.25;89.25
84797;BME280;75028;51.374;21.078;2024-02-21T09:34:04;99725.06;;;8.42;89.46
84797;BME280;75028;51.374;21.078;2024-02-21T09:36:30;99731.31;;;8.41;89.30
84797;BME280;75028;51.374;21.078;2024-02-21T09:38:57;99725.19;;;8.40;89.21
84797;BME280;75028;51.374;21.078;2024-02-21T09:41:27;99726.81;;;8.52;89.64
84797;BME280;75028;51.374;21.078;2024-02-21T09:43:56;99730.44;;;8.51;90.79
84797;BME280;75028;51.374;21.078;2024-02-21T09:46:49;99733.44;;;8.47;88.61
84797;BME280;75028;51.374;21.078;2024-02-21T09:49:30;99723.63;;;8.38;87.80
84797;BME280;75028;51.374;21.078;2024-02-21T09:52:00;99718.94;;;8.41;88.24
84797;BME280;75028;51.374;21.078;2024-02-21T09:54:29;99715.59;;;8.39;87.76
84797;BME280;75028;51.374;21.078;2024-02-21T09:56:59;99722.41;;;8.53;87.81
84797;BME280;75028;51.374;21.078;2024-02-21T09:59:27;99713.66;;;8.52;87.29
84797;BME280;75028;51.374;21.078;2024-02-21T10:01:53;99715.81;;;8.47;87.11
84797;BME280;75028;51.374;21.078;2024-02-21T10:04:20;99707.94;;;8.36;87.02
84797;BME280;75028;51.374;21.078;2024-02-21T10:06:47;99708.88;;;8.35;85.75
84797;BME280;75028;51.374;21.078;2024-02-21T10:11:50;99704.66;;;8.44;87.57
84797;BME280;75028;51.374;21.078;2024-02-21T10:14:17;99705.63;;;8.54;87.98
84797;BME280;75028;51.374;21.078;2024-02-21T10:16:46;99700.22;;;8.55;87.71
84797;BME280;75028;51.374;21.078;2024-02-21T10:19:20;99686.22;;;8.55;87.16
84797;BME280;75028;51.374;21.078;2024-02-21T10:22:18;99689.34;;;8.49;86.59
84797;BME280;75028;51.374;21.078;2024-02-21T10:24:46;99687.38;;;8.73;87.68
84797;BME280;75028;51.374;21.078;2024-02-21T10:27:12;99689.16;;;8.83;87.92
84797;BME280;75028;51.374;21.078;2024-02-21T10:29:38;99684.25;;;8.79;86.16
84797;BME280;75028;51.374;21.078;2024-02-21T10:32:09;99675.31;;;8.91;85.49
84797;BME280;75028;51.374;21.078;2024-02-21T10:34:36;99671.88;;;8.90;86.50
84797;BME280;75028;51.374;21.078;2024-02-21T10:37:03;99668.63;;;8.98;84.85
84797;BME280;75028;51.374;21.078;2024-02-21T10:39:34;99665.19;;;8.86;84.75
84797;BME280;75028;51.374;21.078;2024-02-21T10:42:02;99669.13;;;8.81;88.18
84797;BME280;75028;51.374;21.078;2024-02-21T10:44:31;99659.34;;;8.72;86.23
84797;BME280;75028;51.374;21.078;2024-02-21T10:46:58;99668.72;;;8.65;85.87
84797;BME280;75028;51.374;21.078;2024-02-21T10:49:29;99661.63;;;8.65;86.78
84797;BME280;75028;51.374;21.078;2024-02-21T10:52:17;99662.22;;;8.69;86.12
84797;BME280;75028;51.374;21.078;2024-02-21T10:55:03;99669.41;;;8.67;86.12
84797;BME280;75028;51.374;21.078;2024-02-21T10:57:31;99667.50;;;8.69;86.55
84797;BME280;75028;51.374;21.078;2024-02-21T10:59:58;99658.63;;;8.70;86.76
84797;BME280;75028;51.374;21.078;2024-02-21T11:02:26;99658.50;;;8.71;87.23
84797;BME280;75028;51.374;21.078;2024-02-21T11:04:56;99652.25;;;8.83;86.00
84797;BME280;75028;51.374;21.078;2024-02-21T11:07:23;99643.56;;;8.92;87.03
84797;BME280;75028;51.374;21.078;2024-02-21T11:09:53;99640.84;;;8.83;86.05
84797;BME280;75028;51.374;21.078;2024-02-21T11:12:21;99638.50;;;9.00;85.98
84797;BME280;75028;51.374;21.078;2024-02-21T11:14:48;99637.91;;;8.97;85.97
84797;BME280;75028;51.374;21.078;2024-02-21T11:17:18;99636.69;;;9.01;85.78
84797;BME280;75028;51.374;21.078;2024-02-21T11:19:44;99631.16;;;9.04;86.41
84797;BME280;75028;51.374;21.078;2024-02-21T11:22:15;99631.88;;;9.06;86.20
84797;BME280;75028;51.374;21.078;2024-02-21T11:24:45;99631.94;;;8.95;86.88
84797;BME280;75028;51.374;21.078;2024-02-21T11:27:15;99630.03;;;8.86;87.40
84797;BME280;75028;51.374;21.078;2024-02-21T11:29:46;99629.41;;;8.93;87.65
84797;BME280;75028;51.374;21.078;2024-02-21T11:32:16;99628.56;;;8.93;86.91
84797;BME280;75028;51.374;21.078;2024-02-21T11:34:57;99629.78;;;8.89;86.65
84797;BME280;75028;51.374;21.078;2024-02-21T11:37:31;99619.50;;;8.86;85.08
84797;BME280;75028;51.374;21.078;2024-02-21T11:40:03;99621.28;;;8.85;86.06
84797;BME280;75028;51.374;21.078;2024-02-21T11:42:30;99619.25;;;8.89;86.68
84797;BME280;75028;51.374;21.078;2024-02-21T11:44:57;99615.38;;;8.93;89.06
84797;BME280;75028;51.374;21.078;2024-02-21T11:47:23;99614.66;;;8.91;85.69
84797;BME280;75028;51.374;21.078;2024-02-21T11:49:50;99611.81;;;8.83;85.90
84797;BME280;75028;51.374;21.078;2024-02-21T11:52:21;99611.94;;;8.81;85.80
84797;BME280;75028;51.374;21.078;2024-02-21T11:54:51;99604.66;;;8.74;85.70
84797;BME280;75028;51.374;21.078;2024-02-21T11:57:22;99603.19;;;8.81;86.77
84797;BME280;75028;51.374;21.078;2024-02-21T11:59:48;99605.13;;;8.79;85.98
84797;BME280;75028;51.374;21.078;2024-02-21T12:02:17;99600.97;;;8.76;86.89
84797;BME280;75028;51.374;21.078;2024-02-21T12:04:44;99593.56;;;8.70;86.85
84797;BME280;75028;51.374;21.078;2024-02-21T12:07:10;99597.28;;;8.57;87.86
84797;BME280;75028;51.374;21.078;2024-02-21T12:09:37;99595.31;;;8.49;87.93
84797;BME280;75028;51.374;21.078;2024-02-21T12:12:06;99603.72;;;8.43;89.52
84797;BME280;75028;51.374;21.078;2024-02-21T12:14:33;99585.28;;;8.32;90.89
84797;BME280;75028;51.374;21.078;2024-02-21T12:17:01;99590.19;;;8.26;92.46
84797;BME280;75028;51.374;21.078;2024-02-21T12:19:31;99587.81;;;8.23;92.72
84797;BME280;75028;51.374;21.078;2024-02-21T12:22:00;99593.06;;;8.23;92.38
84797;BME280;75028;51.374;21.078;2024-02-21T12:24:28;99586.34;;;8.19;91.37
84797;BME280;75028;51.374;21.078;2024-02-21T12:26:56;99585.19;;;8.23;92.30
84797;BME280;75028;51.374;21.078;2024-02-21T12:29:23;99583.97;;;8.27;92.17
84797;BME280;75028;51.374;21.078;2024-02-21T12:31:52;99582.63;;;8.21;91.99
84797;BME280;75028;51.374;21.078;2024-02-21T12:34:20;99569.25;;;8.24;93.04
84797;BME280;75028;51.374;21.078;2024-02-21T12:36:47;99570.53;;;8.30;93.92
84797;BME280;75028;51.374;21.078;2024-02-21T12:39:14;99564.69;;;8.26;92.71
84797;BME280;75028;51.374;21.078;2024-02-21T12:41:40;99561.69;;;8.31;94.23
84797;BME280;75028;51.374;21.078;2024-02-21T12:44:07;99559.88;;;8.31;94.25
84797;BME280;75028;51.374;21.078;2024-02-21T12:46:35;99554.03;;;8.28;93.79
84797;BME280;75028;51.374;21.078;2024-02-21T12:49:02;99549.00;;;8.25;94.61
84797;BME280;75028;51.374;21.078;2024-02-21T12:51:29;99552.75;;;8.22;94.39
84797;BME280;75028;51.374;21.078;2024-02-21T12:53:55;99544.81;;;8.11;93.68
84797;BME280;75028;51.374;21.078;2024-02-21T12:56:22;99538.22;;;8.17;93.95